Hovedside
METAR-TAF:

METAR-TAF

Lufthavner :

Kajana, Finland

Kajana lufthavn

breddegrad: 64-17N, lengdegrad: 027-41E, høyde over havet: 143 m

Gjeldene værobservasjon

Denne rapporten ble laget for 35 minutter siden, klokken 20:20 UTC
Vind 16 kt fra Vest-nordvest
Temperatur 1°C
Luftfuktighet 64%
Trykk 997 hPa
Sikt 10 km eller mer
ingen skyer under 1500 m og ingen bygeskyer

METAR: EFKI 262020Z AUTO 29016KT CAVOK 01/M05 Q0997

Tid: 23:55 (20:55 UTC)

Varsel

Denne rapporten ble laget for 3 timer og 23 minutter siden, klokken 17:32 UTC
Varsel gyldig fra 26. klokken 18 UTC til 26. klokken 22 UTC
Vind 15 kt fra Vest-nordvest
Sikt 10 km eller mer
ingen skyer under 1500 m og ingen bygeskyer
Blir
fra 26. klokken 20 UTC til 26. klokken 22 UTC
Vind 8 kt fra Vest

TAF: EFKI 261732Z 2618/2622 29015KT CAVOK BECMG 2620/2622 27008KT

Værobservasjoner og værvarsel for over 4000 flyplasser (METAR- og TAF-rapporter).

Tilgjengelige stasjoner er representert av de røde og gule prikkene på kartet.

Hold musepekeren over prikken for å se navnet på stasjonen.

Klikk så for å se værobservasjoner og -varsler.

For å forandre kartet kan du klikke på den grønne knappen med svart kryss for å zoome inn, på den grønne knappen med strek for å zoome ut, eller på de grønne pilene for å se tilstøtende kart.


METAR-TAF: